createdAt,value
2019-03-29T00:00:23.882Z,14.83
2019-03-29T00:01:27.481Z,16.00
2019-03-29T00:02:30.985Z,19.15
2019-03-29T00:03:35.019Z,13.22
2019-03-29T00:04:38.557Z,13.70
2019-03-29T00:05:42.077Z,13.60
2019-03-29T00:06:45.590Z,15.18
2019-03-29T00:07:49.098Z,15.25
2019-03-29T00:08:52.522Z,9.68
2019-03-29T00:09:55.972Z,11.40
2019-03-29T00:10:59.402Z,17.10
2019-03-29T00:12:02.902Z,14.50
2019-03-29T00:13:06.404Z,15.48
2019-03-29T00:14:09.832Z,14.13
2019-03-29T00:15:13.320Z,13.95
2019-03-29T00:16:16.777Z,15.65
2019-03-29T00:17:20.217Z,16.32
2019-03-29T00:18:23.702Z,19.07
2019-03-29T00:19:27.817Z,13.35
2019-03-29T00:20:31.273Z,12.13
2019-03-29T00:21:34.710Z,14.13
2019-03-29T00:22:38.141Z,18.12
2019-03-29T00:23:41.571Z,15.05
2019-03-29T00:24:44.998Z,13.48
2019-03-29T00:25:48.457Z,12.70
2019-03-29T00:26:52.564Z,14.43
2019-03-29T00:27:56.663Z,14.33
2019-03-29T00:29:00.094Z,13.50
2019-03-29T00:30:03.864Z,19.17
2019-03-29T00:31:07.322Z,17.17
2019-03-29T00:32:10.750Z,12.53
2019-03-29T00:33:14.191Z,15.32
2019-03-29T00:34:17.697Z,17.02
2019-03-29T00:35:21.193Z,15.98
2019-03-29T00:36:25.307Z,16.07
2019-03-29T00:37:29.362Z,13.32
2019-03-29T00:38:32.803Z,15.25
2019-03-29T00:39:36.234Z,14.53
2019-03-29T00:40:39.671Z,16.05
2019-03-29T00:41:43.131Z,17.50
2019-03-29T00:42:46.581Z,15.43
2019-03-29T00:43:50.078Z,12.65
2019-03-29T00:44:53.511Z,15.70
2019-03-29T00:45:56.951Z,15.13
2019-03-29T00:47:00.397Z,17.42
2019-03-29T00:48:03.966Z,16.67
2019-03-29T00:49:07.399Z,16.10
2019-03-29T00:50:10.985Z,14.85
2019-03-29T00:51:14.438Z,16.02
2019-03-29T00:52:17.867Z,16.52
2019-03-29T00:53:21.293Z,18.27
2019-03-29T00:54:24.728Z,16.27
2019-03-29T00:55:28.161Z,19.40
2019-03-29T00:56:31.677Z,17.80
2019-03-29T00:57:35.117Z,17.10
2019-03-29T00:58:38.550Z,15.00
2019-03-29T00:59:41.991Z,16.27
2019-03-29T01:00:45.435Z,17.27
2019-03-29T01:01:48.874Z,16.97
2019-03-29T01:02:52.299Z,14.63
2019-03-29T01:03:55.805Z,17.75
2019-03-29T01:04:59.249Z,16.80
2019-03-29T01:06:02.675Z,16.73
2019-03-29T01:07:06.202Z,15.85
2019-03-29T01:08:10.801Z,18.85
2019-03-29T01:09:14.294Z,19.95
2019-03-29T01:10:17.788Z,20.70
2019-03-29T01:11:21.223Z,16.30
2019-03-29T01:12:24.682Z,17.00
2019-03-29T01:13:28.110Z,17.85
2019-03-29T01:14:31.678Z,15.93
2019-03-29T01:15:35.912Z,17.60
2019-03-29T01:16:39.392Z,17.70
2019-03-29T01:17:42.846Z,20.88
2019-03-29T01:18:46.279Z,19.10
2019-03-29T01:19:49.710Z,16.20
2019-03-29T01:20:53.210Z,27.37
2019-03-29T01:21:56.659Z,17.10
2019-03-29T01:23:00.084Z,16.60
2019-03-29T01:24:03.587Z,17.90
2019-03-29T01:25:08.330Z,20.35
2019-03-29T01:26:12.122Z,16.62
2019-03-29T01:27:15.567Z,19.48
2019-03-29T01:28:18.998Z,17.00
2019-03-29T01:29:22.427Z,18.82
2019-03-29T01:30:25.856Z,19.12
2019-03-29T01:31:29.287Z,20.27
2019-03-29T01:32:33.058Z,18.73
2019-03-29T01:33:36.537Z,19.42
2019-03-29T01:34:39.983Z,22.42
2019-03-29T01:35:43.482Z,20.62
2019-03-29T01:36:46.940Z,22.48
2019-03-29T01:37:50.366Z,20.57
2019-03-29T01:38:53.798Z,20.37
2019-03-29T01:39:57.360Z,21.00
2019-03-29T01:41:01.136Z,21.20
2019-03-29T01:42:04.820Z,24.80
2019-03-29T01:43:08.345Z,21.35
2019-03-29T01:44:11.752Z,26.73
2019-03-29T01:45:15.252Z,22.67
2019-03-29T01:46:18.695Z,23.05
2019-03-29T01:47:22.133Z,21.33
2019-03-29T01:48:25.569Z,21.70
2019-03-29T01:49:28.996Z,22.13
2019-03-29T01:50:32.426Z,21.12
2019-03-29T01:51:35.953Z,20.75
2019-03-29T01:52:39.467Z,29.55
2019-03-29T01:53:42.941Z,23.62
2019-03-29T01:54:46.444Z,21.10
2019-03-29T01:55:49.874Z,23.73
2019-03-29T01:56:53.378Z,21.40
2019-03-29T01:57:56.823Z,20.12
2019-03-29T01:59:00.253Z,23.07
2019-03-29T02:00:03.820Z,24.77
2019-03-29T02:01:07.242Z,21.65
2019-03-29T02:02:10.679Z,24.52
2019-03-29T02:03:14.189Z,22.55
2019-03-29T02:04:17.625Z,23.50
2019-03-29T02:05:21.055Z,21.68
2019-03-29T02:06:24.525Z,21.87
2019-03-29T02:07:27.966Z,20.48
2019-03-29T02:08:36.040Z,23.98
2019-03-29T02:09:36.649Z,26.87
2019-03-29T02:10:40.076Z,25.82
2019-03-29T02:11:43.495Z,25.15
2019-03-29T02:12:46.923Z,23.18
2019-03-29T02:13:51.221Z,23.75
2019-03-29T02:14:54.697Z,22.50
2019-03-29T02:15:58.136Z,28.35
2019-03-29T02:17:01.567Z,23.60
2019-03-29T02:18:05.064Z,23.65
2019-03-29T02:19:08.519Z,21.23
2019-03-29T02:20:12.406Z,28.98
2019-03-29T02:21:16.923Z,29.23
2019-03-29T02:22:20.393Z,26.85
2019-03-29T02:23:23.825Z,25.57
2019-03-29T02:24:27.292Z,25.88
2019-03-29T02:25:30.754Z,24.87
2019-03-29T02:26:34.870Z,24.18
2019-03-29T02:27:38.460Z,24.20
2019-03-29T02:28:41.894Z,26.25
2019-03-29T02:29:45.345Z,27.65
2019-03-29T02:30:48.800Z,24.32
2019-03-29T02:31:52.246Z,24.57
2019-03-29T02:32:55.662Z,29.87
2019-03-29T02:33:59.098Z,24.65
2019-03-29T02:35:02.875Z,27.60
2019-03-29T02:36:06.772Z,33.00
2019-03-29T02:37:10.522Z,25.95
2019-03-29T02:38:13.949Z,27.90
2019-03-29T02:39:17.465Z,25.00
2019-03-29T02:40:22.703Z,24.32
2019-03-29T02:41:26.210Z,24.98
2019-03-29T02:42:29.653Z,26.40
2019-03-29T02:43:33.083Z,26.07
2019-03-29T02:44:36.514Z,28.10
2019-03-29T02:45:39.971Z,27.98
2019-03-29T02:46:43.476Z,27.22
2019-03-29T02:47:48.738Z,24.23
2019-03-29T02:48:52.233Z,23.65
2019-03-29T02:49:55.656Z,26.87
2019-03-29T02:50:59.107Z,25.02
2019-03-29T02:52:02.741Z,28.50
2019-03-29T02:53:06.240Z,24.63
2019-03-29T02:54:09.670Z,27.60
2019-03-29T02:55:13.179Z,22.40
2019-03-29T02:56:16.708Z,26.15
2019-03-29T02:57:20.165Z,25.25
2019-03-29T02:58:23.600Z,30.43
2019-03-29T02:59:27.103Z,27.98
2019-03-29T03:00:30.529Z,24.65
2019-03-29T03:01:33.989Z,24.75
2019-03-29T03:02:37.489Z,26.60
2019-03-29T03:03:40.986Z,28.12
2019-03-29T03:04:44.427Z,28.77
2019-03-29T03:05:47.870Z,28.57
2019-03-29T03:06:51.315Z,25.82
2019-03-29T03:07:54.773Z,24.77
2019-03-29T03:09:12.138Z,26.33
2019-03-29T03:10:05.096Z,26.00
2019-03-29T03:11:08.667Z,36.88
2019-03-29T03:12:12.112Z,25.17
2019-03-29T03:13:15.551Z,32.83
2019-03-29T03:14:18.979Z,28.73
2019-03-29T03:15:22.412Z,28.52
2019-03-29T03:16:25.921Z,27.70
2019-03-29T03:17:29.371Z,31.77
2019-03-29T03:18:32.822Z,31.25
2019-03-29T03:19:36.268Z,34.35
2019-03-29T03:20:39.704Z,26.85
2019-03-29T03:21:43.139Z,30.12
2019-03-29T03:22:46.665Z,26.48
2019-03-29T03:23:50.108Z,26.65
2019-03-29T03:24:53.518Z,27.80
2019-03-29T03:25:57.028Z,32.25
2019-03-29T03:27:00.530Z,26.07
2019-03-29T03:28:03.984Z,31.15
2019-03-29T03:29:07.410Z,28.83
2019-03-29T03:30:12.140Z,31.25
2019-03-29T03:31:15.687Z,29.25
2019-03-29T03:32:19.119Z,29.20
2019-03-29T03:33:22.633Z,26.93
2019-03-29T03:34:26.130Z,30.80
2019-03-29T03:35:29.577Z,28.25
2019-03-29T03:36:33.148Z,29.02
2019-03-29T03:37:36.753Z,29.57
2019-03-29T03:38:40.273Z,26.02
2019-03-29T03:39:43.702Z,31.87
2019-03-29T03:40:47.153Z,33.63
2019-03-29T03:41:50.631Z,28.25
2019-03-29T03:42:54.230Z,29.35
2019-03-29T03:43:57.694Z,27.95
2019-03-29T03:45:01.184Z,33.73
2019-03-29T03:46:04.665Z,31.23
2019-03-29T03:47:08.093Z,29.75
2019-03-29T03:48:11.608Z,28.73
2019-03-29T03:49:15.130Z,27.35
2019-03-29T03:50:27.305Z,33.92
2019-03-29T03:51:30.801Z,28.87
2019-03-29T03:52:34.300Z,28.52
2019-03-29T03:53:37.989Z,34.40
2019-03-29T03:54:42.062Z,29.95
2019-03-29T03:55:45.566Z,30.17
2019-03-29T03:56:51.157Z,29.18
2019-03-29T03:57:57.759Z,31.97
2019-03-29T03:59:00.252Z,32.30
2019-03-29T04:00:05.860Z,29.10
2019-03-29T04:01:09.364Z,29.85
2019-03-29T04:02:12.870Z,31.17
2019-03-29T04:03:16.299Z,32.53
2019-03-29T04:04:19.765Z,30.80
2019-03-29T04:05:23.203Z,29.80
2019-03-29T04:06:26.635Z,31.77
2019-03-29T04:07:30.068Z,26.48
2019-03-29T04:08:33.577Z,33.98
2019-03-29T04:09:49.329Z,29.63
2019-03-29T04:10:42.454Z,32.65
2019-03-29T04:11:45.860Z,33.58
2019-03-29T04:12:49.292Z,27.62
2019-03-29T04:13:52.742Z,27.20
2019-03-29T04:14:56.182Z,29.48
2019-03-29T04:15:59.684Z,26.30
2019-03-29T04:17:03.184Z,30.05
2019-03-29T04:18:06.703Z,34.03
2019-03-29T04:19:10.140Z,31.15
2019-03-29T04:20:13.712Z,27.62
2019-03-29T04:21:17.227Z,38.00
2019-03-29T04:22:20.673Z,32.25
2019-03-29T04:23:24.170Z,32.13
2019-03-29T04:24:27.614Z,29.98
2019-03-29T04:25:31.193Z,30.40
2019-03-29T04:26:34.689Z,33.48
2019-03-29T04:27:38.123Z,37.35
2019-03-29T04:28:41.557Z,39.03
2019-03-29T04:29:45.028Z,32.93
2019-03-29T04:30:48.477Z,30.20
2019-03-29T04:31:51.973Z,32.58
2019-03-29T04:32:55.478Z,31.20
2019-03-29T04:33:58.904Z,29.45
2019-03-29T04:35:02.362Z,29.55
2019-03-29T04:36:06.147Z,34.43
2019-03-29T04:37:09.568Z,26.50
2019-03-29T04:38:13.071Z,29.00
2019-03-29T04:39:16.722Z,32.00
2019-03-29T04:40:20.200Z,33.42
2019-03-29T04:41:23.629Z,32.48
2019-03-29T04:42:27.065Z,37.33
2019-03-29T04:43:30.571Z,28.85
2019-03-29T04:44:34.023Z,31.55
2019-03-29T04:45:37.529Z,30.85
2019-03-29T04:46:40.963Z,33.95
2019-03-29T04:47:44.399Z,34.48
2019-03-29T04:48:47.833Z,35.15
2019-03-29T04:49:51.354Z,37.42
2019-03-29T04:50:54.852Z,35.75
2019-03-29T04:51:58.346Z,38.35
2019-03-29T04:53:01.789Z,37.38
2019-03-29T04:54:05.289Z,30.97
2019-03-29T04:55:08.885Z,33.65
2019-03-29T04:56:12.310Z,48.40
2019-03-29T04:57:15.806Z,29.70
2019-03-29T04:58:19.313Z,33.58
2019-03-29T04:59:22.757Z,35.88
2019-03-29T05:00:26.202Z,36.58
2019-03-29T05:01:29.635Z,33.58
2019-03-29T05:02:33.104Z,36.00
2019-03-29T05:03:36.583Z,31.20
2019-03-29T05:04:40.128Z,34.13
2019-03-29T05:05:43.700Z,33.70
2019-03-29T05:06:47.143Z,34.88
2019-03-29T05:07:50.576Z,39.13
2019-03-29T05:08:53.995Z,34.20
2019-03-29T05:09:57.444Z,29.55
2019-03-29T05:11:00.872Z,34.53
2019-03-29T05:12:04.382Z,29.67
2019-03-29T05:13:07.812Z,35.05
2019-03-29T05:14:11.263Z,33.48
2019-03-29T05:15:14.722Z,31.73
2019-03-29T05:16:18.157Z,33.88
2019-03-29T05:17:21.598Z,32.98
2019-03-29T05:18:25.065Z,33.88
2019-03-29T05:19:28.500Z,32.50
2019-03-29T05:20:31.955Z,34.58
2019-03-29T05:21:35.382Z,33.88
2019-03-29T05:22:38.817Z,32.38
2019-03-29T05:23:42.354Z,36.65
2019-03-29T05:24:45.854Z,34.35
2019-03-29T05:25:49.312Z,33.42
2019-03-29T05:26:52.752Z,33.60
2019-03-29T05:27:56.241Z,32.35
2019-03-29T05:28:59.678Z,39.48
2019-03-29T05:30:03.141Z,32.88
2019-03-29T05:31:06.575Z,39.92
2019-03-29T05:32:10.006Z,32.42
2019-03-29T05:33:13.437Z,40.28
2019-03-29T05:34:16.867Z,35.10
2019-03-29T05:35:20.317Z,31.90
2019-03-29T05:36:23.816Z,35.88
2019-03-29T05:37:27.238Z,35.98
2019-03-29T05:38:30.684Z,29.70
2019-03-29T05:39:34.111Z,31.77
2019-03-29T05:40:37.563Z,33.78
2019-03-29T05:41:40.997Z,34.50
2019-03-29T05:42:44.511Z,36.48
2019-03-29T05:43:48.007Z,35.38
2019-03-29T05:44:51.434Z,36.60
2019-03-29T05:45:54.877Z,39.85
2019-03-29T05:46:58.314Z,34.75
2019-03-29T05:48:01.823Z,34.83
2019-03-29T05:49:05.267Z,33.05
2019-03-29T05:50:08.856Z,35.08
2019-03-29T05:51:12.285Z,33.65
2019-03-29T05:52:15.718Z,37.53
2019-03-29T05:53:19.376Z,43.13
2019-03-29T05:54:22.802Z,33.30
2019-03-29T05:55:32.639Z,34.63
2019-03-29T05:56:31.438Z,35.65
2019-03-29T05:57:34.907Z,40.63
2019-03-29T05:58:38.342Z,36.50
2019-03-29T05:59:41.845Z,33.10
2019-03-29T06:00:45.370Z,47.98
2019-03-29T06:01:48.929Z,30.88
2019-03-29T06:02:52.362Z,41.88
2019-03-29T06:03:55.926Z,32.98
2019-03-29T06:04:59.377Z,35.70
2019-03-29T06:06:02.836Z,34.20
2019-03-29T06:07:06.266Z,39.15
2019-03-29T06:08:09.793Z,27.93
2019-03-29T06:09:13.218Z,35.30
2019-03-29T06:10:16.718Z,32.20
2019-03-29T06:11:20.171Z,37.98
2019-03-29T06:12:23.608Z,34.13
2019-03-29T06:13:27.123Z,36.30
2019-03-29T06:14:30.556Z,37.28
2019-03-29T06:15:34.006Z,36.58
2019-03-29T06:16:39.151Z,32.40
2019-03-29T06:17:48.522Z,35.85
2019-03-29T06:18:47.854Z,33.48
2019-03-29T06:19:51.287Z,39.92
2019-03-29T06:20:54.723Z,37.35
2019-03-29T06:21:58.157Z,40.28
2019-03-29T06:23:01.591Z,34.73
2019-03-29T06:24:05.119Z,40.17
2019-03-29T06:25:08.672Z,46.55
2019-03-29T06:26:12.125Z,32.28
2019-03-29T06:27:15.571Z,36.45
2019-03-29T06:28:19.005Z,34.70
2019-03-29T06:29:22.564Z,40.23
2019-03-29T06:30:29.849Z,35.55
2019-03-29T06:31:33.313Z,42.05
2019-03-29T06:32:36.801Z,39.40
2019-03-29T06:33:40.321Z,33.28
2019-03-29T06:34:43.867Z,41.15
2019-03-29T06:35:50.141Z,38.13
2019-03-29T06:36:55.029Z,39.65
2019-03-29T06:37:58.906Z,37.00
2019-03-29T06:39:04.252Z,43.83
2019-03-29T06:40:10.162Z,42.23
2019-03-29T06:41:13.684Z,47.27
2019-03-29T06:42:17.114Z,41.28
2019-03-29T06:43:20.550Z,46.23
2019-03-29T06:44:23.986Z,52.78
2019-03-29T06:45:27.425Z,39.50
2019-03-29T06:46:30.949Z,37.67
2019-03-29T06:47:34.381Z,40.00
2019-03-29T06:48:37.821Z,37.95
2019-03-29T06:49:41.322Z,35.70
2019-03-29T06:50:44.951Z,40.00
2019-03-29T06:51:48.358Z,39.35
2019-03-29T06:52:51.791Z,36.90
2019-03-29T06:53:55.303Z,34.88
2019-03-29T06:54:58.751Z,32.90
2019-03-29T06:56:02.253Z,36.08
2019-03-29T06:57:05.709Z,49.42
2019-03-29T06:58:09.141Z,43.25
2019-03-29T06:59:12.574Z,50.43
2019-03-29T07:00:16.643Z,53.75
2019-03-29T07:01:20.098Z,38.42
2019-03-29T07:02:23.634Z,44.80
2019-03-29T07:03:27.221Z,39.42
2019-03-29T07:04:30.661Z,41.40
2019-03-29T07:05:34.088Z,37.93
2019-03-29T07:06:37.541Z,41.18
2019-03-29T07:07:44.339Z,43.87
2019-03-29T07:08:46.138Z,41.35
2019-03-29T07:09:49.566Z,43.83
2019-03-29T07:10:52.999Z,38.78
2019-03-29T07:11:56.524Z,41.28
2019-03-29T07:12:59.993Z,42.93
2019-03-29T07:14:03.558Z,37.85
2019-03-29T07:15:07.329Z,32.93
2019-03-29T07:16:10.766Z,45.83
2019-03-29T07:17:14.290Z,40.25
2019-03-29T07:18:17.728Z,42.30
2019-03-29T07:19:21.162Z,40.45
2019-03-29T07:20:24.590Z,39.20
2019-03-29T07:21:28.019Z,38.88
2019-03-29T07:22:34.544Z,40.08
2019-03-29T07:23:36.687Z,40.88
2019-03-29T07:24:40.127Z,39.00
2019-03-29T07:25:43.563Z,35.83
2019-03-29T07:26:47.000Z,42.10
2019-03-29T07:27:52.325Z,49.65
2019-03-29T07:28:55.736Z,38.67
2019-03-29T07:29:59.173Z,42.33
2019-03-29T07:31:02.599Z,39.35
2019-03-29T07:32:06.028Z,39.75
2019-03-29T07:33:09.477Z,40.83
2019-03-29T07:34:12.903Z,42.17
2019-03-29T07:35:16.405Z,40.67
2019-03-29T07:36:19.916Z,41.68
2019-03-29T07:37:23.346Z,45.33
2019-03-29T07:38:26.799Z,45.38
2019-03-29T07:39:30.328Z,46.98
2019-03-29T07:40:33.762Z,39.23
2019-03-29T07:41:37.258Z,45.92
2019-03-29T07:42:40.713Z,54.88
2019-03-29T07:43:44.190Z,42.23
2019-03-29T07:44:47.683Z,41.00
2019-03-29T07:45:51.118Z,48.40
2019-03-29T07:46:54.696Z,70.32
2019-03-29T07:47:58.226Z,50.83
2019-03-29T07:49:01.689Z,41.42
2019-03-29T07:50:07.030Z,47.10
2019-03-29T07:51:10.892Z,79.90
2019-03-29T07:52:14.302Z,55.05
2019-03-29T07:53:17.725Z,63.08
2019-03-29T07:54:21.171Z,71.53
2019-03-29T07:55:24.640Z,48.38
2019-03-29T07:56:28.067Z,46.50
2019-03-29T07:57:31.488Z,47.08
2019-03-29T07:58:34.981Z,42.25
2019-03-29T07:59:38.451Z,43.20
2019-03-29T08:00:42.518Z,46.02
2019-03-29T08:01:45.918Z,47.60
2019-03-29T08:02:49.345Z,42.65
2019-03-29T08:03:53.361Z,42.35
2019-03-29T08:04:57.074Z,44.58
2019-03-29T08:06:00.502Z,42.83
2019-03-29T08:07:03.941Z,44.60
2019-03-29T08:08:07.378Z,43.50
2019-03-29T08:09:21.668Z,41.40
2019-03-29T08:10:25.783Z,43.68
2019-03-29T08:11:26.247Z,45.08
2019-03-29T08:12:26.547Z,52.30
2019-03-29T08:13:30.041Z,42.15
2019-03-29T08:14:33.511Z,45.48
2019-03-29T08:15:36.959Z,40.17
2019-03-29T08:16:40.469Z,44.55
2019-03-29T08:17:43.899Z,48.58
2019-03-29T08:18:47.338Z,38.35
2019-03-29T08:20:09.396Z,42.83
2019-03-29T08:20:55.943Z,44.48
2019-03-29T08:21:59.383Z,40.95
2019-03-29T08:23:02.825Z,38.30
2019-03-29T08:24:06.255Z,42.33
2019-03-29T08:25:09.843Z,38.92
2019-03-29T08:26:13.340Z,44.63
2019-03-29T08:27:16.769Z,36.38
2019-03-29T08:28:20.202Z,37.98
2019-03-29T08:29:23.698Z,35.70
2019-03-29T08:30:27.166Z,36.33
2019-03-29T08:31:30.663Z,34.27
2019-03-29T08:32:34.090Z,35.38
2019-03-29T08:33:37.519Z,32.20
2019-03-29T08:34:41.019Z,54.93
2019-03-29T08:35:44.475Z,34.53
2019-03-29T08:36:47.898Z,32.10
2019-03-29T08:37:51.332Z,30.68
2019-03-29T08:38:54.758Z,33.42
2019-03-29T08:39:58.197Z,36.55
2019-03-29T08:41:01.642Z,31.33
2019-03-29T08:42:05.140Z,34.95
2019-03-29T08:43:08.524Z,30.68
2019-03-29T08:44:12.092Z,28.00
2019-03-29T08:45:15.750Z,36.08
2019-03-29T08:46:19.337Z,35.65
2019-03-29T08:47:22.770Z,35.63
2019-03-29T08:48:26.273Z,39.85
2019-03-29T08:49:29.713Z,63.48
2019-03-29T08:50:33.234Z,40.25
2019-03-29T08:51:36.735Z,31.45
2019-03-29T08:52:40.240Z,46.08
2019-03-29T08:53:43.755Z,56.55
2019-03-29T08:54:47.188Z,33.73
2019-03-29T08:55:50.631Z,28.07
2019-03-29T08:56:54.066Z,27.00
2019-03-29T08:57:57.499Z,29.48
2019-03-29T08:59:00.925Z,27.10
2019-03-29T09:00:06.859Z,35.50
2019-03-29T09:01:10.515Z,29.10
2019-03-29T09:02:14.088Z,29.32
2019-03-29T09:03:17.589Z,26.25
2019-03-29T09:04:21.815Z,29.48
2019-03-29T09:05:25.440Z,25.00
2019-03-29T09:06:30.320Z,25.75
2019-03-29T09:07:44.436Z,28.20
2019-03-29T09:08:39.497Z,33.83
2019-03-29T09:09:46.257Z,26.55
2019-03-29T09:10:48.221Z,28.87
2019-03-29T09:11:51.817Z,24.47
2019-03-29T09:12:55.337Z,29.23
2019-03-29T09:13:58.750Z,33.35
2019-03-29T09:15:04.105Z,34.05
2019-03-29T09:16:07.482Z,28.77
2019-03-29T09:17:11.001Z,24.70
2019-03-29T09:18:14.428Z,25.12
2019-03-29T09:19:17.860Z,26.57
2019-03-29T09:20:21.298Z,29.60
2019-03-29T09:21:24.747Z,35.03
2019-03-29T09:22:28.182Z,28.90
2019-03-29T09:23:31.723Z,27.98
2019-03-29T09:24:35.230Z,23.35
2019-03-29T09:25:40.440Z,28.60
2019-03-29T09:26:43.850Z,27.42
2019-03-29T09:27:47.349Z,30.32
2019-03-29T09:28:50.804Z,28.83
2019-03-29T09:29:54.260Z,27.58
2019-03-29T09:30:57.711Z,25.82
2019-03-29T09:32:01.228Z,28.62
2019-03-29T09:33:04.800Z,33.65
2019-03-29T09:34:08.370Z,31.00
2019-03-29T09:35:12.004Z,25.45
2019-03-29T09:36:15.627Z,27.10
2019-03-29T09:37:19.114Z,26.30
2019-03-29T09:38:22.558Z,24.60
2019-03-29T09:39:26.002Z,27.17
2019-03-29T09:40:29.598Z,25.45
2019-03-29T09:41:33.092Z,23.07
2019-03-29T09:42:36.605Z,21.93
2019-03-29T09:43:40.044Z,19.10
2019-03-29T09:44:43.493Z,21.57
2019-03-29T09:45:46.932Z,21.20
2019-03-29T09:46:50.437Z,20.43
2019-03-29T09:47:55.925Z,21.40
2019-03-29T09:48:59.233Z,20.62
2019-03-29T09:50:02.995Z,24.63
2019-03-29T09:51:09.862Z,20.15
2019-03-29T09:52:13.294Z,20.00
2019-03-29T09:53:16.734Z,24.72
2019-03-29T09:54:20.648Z,18.07
2019-03-29T09:55:24.128Z,159.15
2019-03-29T09:56:38.659Z,22.00
2019-03-29T09:57:37.275Z,21.07
2019-03-29T09:58:38.878Z,29.20
2019-03-29T09:59:42.312Z,32.80
2019-03-29T10:00:45.787Z,28.87
2019-03-29T10:01:49.321Z,60.67
2019-03-29T10:02:52.764Z,40.38
2019-03-29T10:03:56.291Z,17.92
2019-03-29T10:04:59.782Z,19.92
2019-03-29T10:06:03.446Z,20.57
2019-03-29T10:07:06.983Z,26.23
2019-03-29T10:08:10.449Z,19.15
2019-03-29T10:09:13.898Z,17.48
2019-03-29T10:10:17.424Z,18.92
2019-03-29T10:11:22.235Z,19.07
2019-03-29T10:12:25.775Z,18.60
2019-03-29T10:13:29.295Z,16.75
2019-03-29T10:14:33.629Z,19.23
2019-03-29T10:15:37.303Z,24.20
2019-03-29T10:16:40.725Z,16.05
2019-03-29T10:17:44.308Z,19.30
2019-03-29T10:18:47.699Z,22.82
2019-03-29T10:19:51.132Z,20.37
2019-03-29T10:20:54.588Z,18.40
2019-03-29T10:21:58.055Z,19.05
2019-03-29T10:23:01.570Z,20.45
2019-03-29T10:24:05.082Z,17.62
2019-03-29T10:25:19.121Z,17.32
2019-03-29T10:26:13.927Z,17.75
2019-03-29T10:27:18.995Z,18.95
2019-03-29T10:28:22.772Z,22.62
2019-03-29T10:29:26.221Z,20.02
2019-03-29T10:30:37.690Z,16.80
2019-03-29T10:31:41.196Z,18.45
2019-03-29T10:32:44.730Z,19.85
2019-03-29T10:33:49.237Z,16.87
2019-03-29T10:34:52.893Z,18.73
2019-03-29T10:35:56.478Z,20.37
2019-03-29T10:36:59.919Z,18.85
2019-03-29T10:38:03.443Z,21.90
2019-03-29T10:39:09.951Z,16.32
2019-03-29T10:40:13.537Z,13.93
2019-03-29T10:41:16.969Z,16.00
2019-03-29T10:42:20.485Z,14.18
2019-03-29T10:43:23.942Z,17.92
2019-03-29T10:44:27.476Z,24.05
2019-03-29T10:45:30.912Z,17.12
2019-03-29T10:46:34.438Z,19.23
2019-03-29T10:47:43.616Z,20.08
2019-03-29T10:48:43.164Z,20.25
2019-03-29T10:49:46.696Z,17.95
2019-03-29T10:50:50.152Z,15.10
2019-03-29T10:51:53.587Z,21.93
2019-03-29T10:52:57.157Z,19.98
2019-03-29T10:54:00.684Z,20.40
2019-03-29T10:55:04.684Z,20.27
2019-03-29T10:56:08.222Z,18.87
2019-03-29T10:57:11.640Z,29.00
2019-03-29T10:58:15.139Z,39.78
2019-03-29T10:59:27.184Z,27.40
2019-03-29T11:00:38.491Z,22.42
2019-03-29T11:01:41.926Z,29.12
2019-03-29T11:02:45.354Z,22.55
2019-03-29T11:03:48.806Z,18.20
2019-03-29T11:04:52.290Z,16.00
2019-03-29T11:05:55.787Z,21.70
2019-03-29T11:06:59.290Z,23.22
2019-03-29T11:08:02.883Z,17.35
2019-03-29T11:09:07.857Z,20.90
2019-03-29T11:10:17.054Z,19.98
2019-03-29T11:11:20.570Z,29.00
2019-03-29T11:12:24.072Z,21.05
2019-03-29T11:13:27.647Z,29.02
2019-03-29T11:14:31.224Z,17.15
2019-03-29T11:15:35.041Z,17.52
2019-03-29T11:16:38.579Z,22.20
2019-03-29T11:17:42.014Z,18.27
2019-03-29T11:18:45.884Z,15.75
2019-03-29T11:19:49.479Z,16.20
2019-03-29T11:20:53.101Z,20.92
2019-03-29T11:21:56.576Z,19.25
2019-03-29T11:23:00.156Z,19.45
2019-03-29T11:24:03.695Z,15.05
2019-03-29T11:25:07.247Z,17.40
2019-03-29T11:26:10.720Z,17.42
2019-03-29T11:27:14.165Z,15.90
2019-03-29T11:28:17.755Z,18.67
2019-03-29T11:29:21.270Z,21.12
2019-03-29T11:30:24.759Z,19.10
2019-03-29T11:31:28.369Z,17.10
2019-03-29T11:32:31.853Z,16.00
2019-03-29T11:33:35.362Z,20.00
2019-03-29T11:34:38.857Z,21.05
2019-03-29T11:35:42.286Z,17.25
2019-03-29T11:36:45.737Z,18.60
2019-03-29T11:37:49.201Z,17.67
2019-03-29T11:38:52.644Z,18.65
2019-03-29T11:39:56.072Z,21.02
2019-03-29T11:40:59.575Z,18.05
2019-03-29T11:42:03.633Z,18.65
2019-03-29T11:43:07.173Z,17.30
2019-03-29T11:44:10.768Z,17.20
2019-03-29T11:45:14.263Z,16.42
2019-03-29T11:46:17.803Z,17.12
2019-03-29T11:47:21.311Z,15.15
2019-03-29T11:48:24.749Z,17.37
2019-03-29T11:49:28.183Z,17.60
2019-03-29T11:50:31.692Z,14.73
2019-03-29T11:51:35.203Z,12.78
2019-03-29T11:52:38.809Z,15.95
2019-03-29T11:53:42.313Z,17.25
2019-03-29T11:54:45.775Z,22.10
2019-03-29T11:55:49.209Z,14.60
2019-03-29T11:56:52.651Z,13.95
2019-03-29T11:57:56.132Z,17.70
2019-03-29T11:58:59.699Z,16.05
2019-03-29T12:00:03.372Z,16.07
2019-03-29T12:01:06.805Z,17.48
2019-03-29T12:02:10.428Z,20.32
2019-03-29T12:03:14.503Z,27.90
2019-03-29T12:04:18.022Z,20.95
2019-03-29T12:05:21.460Z,16.25
2019-03-29T12:06:24.983Z,20.72
2019-03-29T12:07:28.507Z,51.08
2019-03-29T12:08:31.965Z,19.67
2019-03-29T12:09:35.403Z,23.07
2019-03-29T12:10:38.989Z,17.12
2019-03-29T12:11:42.414Z,17.12
2019-03-29T12:12:46.030Z,18.77
2019-03-29T12:13:49.464Z,17.17
2019-03-29T12:14:52.973Z,17.98
2019-03-29T12:15:56.481Z,16.90
2019-03-29T12:17:00.025Z,14.87
2019-03-29T12:18:03.549Z,19.87
2019-03-29T12:19:07.142Z,14.93
2019-03-29T12:20:10.643Z,18.55
2019-03-29T12:21:14.151Z,16.90
2019-03-29T12:22:17.586Z,14.55
2019-03-29T12:23:21.043Z,15.83
2019-03-29T12:24:24.550Z,16.55
2019-03-29T12:25:28.065Z,17.07
2019-03-29T12:26:31.502Z,13.10
2019-03-29T12:27:34.956Z,16.12
2019-03-29T12:28:38.403Z,17.98
2019-03-29T12:29:41.851Z,16.40
2019-03-29T12:30:45.920Z,15.95
2019-03-29T12:31:49.355Z,17.05
2019-03-29T12:32:52.804Z,14.63
2019-03-29T12:33:56.239Z,14.53
2019-03-29T12:34:59.679Z,14.75
2019-03-29T12:36:03.185Z,15.30
2019-03-29T12:37:06.624Z,35.52
2019-03-29T12:38:10.185Z,17.65
2019-03-29T12:39:13.597Z,15.75
2019-03-29T12:40:17.099Z,19.95
2019-03-29T12:41:20.569Z,16.95
2019-03-29T12:42:24.089Z,22.95
2019-03-29T12:43:27.552Z,23.38
2019-03-29T12:44:31.101Z,16.70
2019-03-29T12:45:34.630Z,17.23
2019-03-29T12:46:38.147Z,20.17
2019-03-29T12:47:41.663Z,17.27
2019-03-29T12:48:45.204Z,15.20
2019-03-29T12:49:48.656Z,13.93
2019-03-29T12:50:52.307Z,13.93
2019-03-29T12:51:55.741Z,17.13
2019-03-29T12:52:59.179Z,12.80
2019-03-29T12:54:02.699Z,16.57
2019-03-29T12:55:06.667Z,14.93
2019-03-29T12:56:10.260Z,16.87
2019-03-29T12:57:13.839Z,47.00
2019-03-29T12:58:17.299Z,18.00
2019-03-29T12:59:20.826Z,17.80
2019-03-29T13:00:24.352Z,18.33
2019-03-29T13:01:38.603Z,16.67
2019-03-29T13:02:34.718Z,15.53
2019-03-29T13:03:38.574Z,12.90
2019-03-29T13:04:42.028Z,14.47
2019-03-29T13:05:45.464Z,17.10
2019-03-29T13:06:48.909Z,14.60
2019-03-29T13:07:53.274Z,18.37
2019-03-29T13:08:56.775Z,14.10
2019-03-29T13:10:00.416Z,14.20
2019-03-29T13:11:03.932Z,12.27
2019-03-29T13:12:07.430Z,12.00
2019-03-29T13:13:10.871Z,12.47
2019-03-29T13:14:14.382Z,12.47
2019-03-29T13:15:17.890Z,12.53
2019-03-29T13:16:21.324Z,13.10
2019-03-29T13:17:24.881Z,13.37
2019-03-29T13:18:28.656Z,14.03
2019-03-29T13:19:32.188Z,14.40
2019-03-29T13:20:35.615Z,13.73
2019-03-29T13:21:39.065Z,12.07
2019-03-29T13:22:42.480Z,12.20
2019-03-29T13:23:45.916Z,12.93
2019-03-29T13:24:49.436Z,12.03
2019-03-29T13:25:52.945Z,11.93
2019-03-29T13:26:56.383Z,11.70
2019-03-29T13:27:59.833Z,13.13
2019-03-29T13:29:03.331Z,16.03
2019-03-29T13:30:08.594Z,13.23
2019-03-29T13:31:12.870Z,12.00
2019-03-29T13:32:16.324Z,16.13
2019-03-29T13:33:21.191Z,11.20
2019-03-29T13:34:24.664Z,13.23
2019-03-29T13:35:28.101Z,13.57
2019-03-29T13:36:31.609Z,11.30
2019-03-29T13:37:35.174Z,12.77
2019-03-29T13:38:38.678Z,14.00
2019-03-29T13:39:42.306Z,13.57